Inchelium, Washington
Current Conditions -  °F | °C
As of 7:53 AM on Monday 26 Jan 2015 (Local Time) from KDEW Reporting Station
Clear Clear  
Wind Chill: 30°   Ceiling: Unl
Heat Index: 34°   Visibility: 10mi
Dew Point: 33°   Wind: 5mph
Humidity: 96%   Direction: 350°N
Pressure: 30.08"   Gusts: NA
Location:  48.34°N, 118.25°W
Report Text: KDEW 261553Z AUTO 35004KT 10SM CLR 01/01 A3008 RMK AO2 SLP202 T00110006
Loading
Personal Weather Stations






























Interactive Weather Map New forecast layout! Learn more

10-Day Weather Forecast

Advertisements
Track Severe Weather on mobile